createdAt,value
2023-04-20T00:03:29.910Z,7.50
2023-04-20T00:18:32.487Z,7.40
2023-04-20T00:33:38.408Z,7.30
2023-04-20T00:48:56.843Z,7.80
2023-04-20T01:04:19.399Z,8.20
2023-04-20T01:19:25.432Z,8.80
2023-04-20T01:34:41.949Z,8.50
2023-04-20T01:49:45.060Z,7.80
2023-04-20T02:04:47.590Z,7.30
2023-04-20T02:19:50.313Z,7.40
2023-04-20T02:34:53.308Z,7.10
2023-04-20T02:49:55.943Z,6.90
2023-04-20T03:04:59.560Z,6.80
2023-04-20T03:20:09.077Z,6.80
2023-04-20T03:35:12.556Z,6.80
2023-04-20T03:50:19.397Z,6.50
2023-04-20T04:05:25.660Z,6.50
2023-04-20T04:20:28.813Z,6.60
2023-04-20T04:35:34.907Z,6.30
2023-04-20T04:50:41.321Z,6.10
2023-04-20T05:05:57.440Z,6.40
2023-04-20T05:21:00.327Z,6.90
2023-04-20T05:36:10.257Z,6.80
2023-04-20T05:51:13.073Z,6.80
2023-04-20T06:06:16.776Z,6.60
2023-04-20T06:21:20.956Z,6.20
2023-04-20T06:36:38.338Z,6.10
2023-04-20T06:51:41.822Z,7.30
2023-04-20T07:06:51.178Z,7.40
2023-04-20T07:21:58.376Z,7.60
2023-04-20T07:37:00.979Z,7.70
2023-04-20T07:52:15.085Z,7.80
2023-04-20T08:07:19.153Z,8.00
2023-04-20T08:22:22.021Z,8.00
2023-04-20T08:37:25.716Z,6.80
2023-04-20T08:52:28.422Z,6.50
2023-04-20T09:07:53.263Z,7.00
2023-04-20T09:22:55.804Z,7.60
2023-04-20T09:37:58.427Z,7.70
2023-04-20T09:53:05.533Z,7.30
2023-04-20T10:08:08.287Z,7.80
2023-04-20T10:23:23.995Z,7.30
2023-04-20T10:38:36.808Z,7.00
2023-04-20T10:53:39.284Z,6.80
2023-04-20T11:08:43.539Z,6.00
2023-04-20T11:23:46.497Z,5.70
2023-04-20T11:39:09.773Z,6.80
2023-04-20T11:54:12.775Z,7.90
2023-04-20T12:09:15.587Z,8.00
2023-04-20T12:24:18.048Z,7.80
2023-04-20T12:39:40.759Z,9.10
2023-04-20T12:54:44.309Z,8.60
2023-04-20T13:09:54.008Z,8.90
2023-04-20T13:25:10.516Z,8.80
2023-04-20T13:40:28.151Z,9.60
2023-04-20T13:55:31.454Z,9.10
2023-04-20T14:10:34.352Z,10.40
2023-04-20T14:25:37.081Z,9.70
2023-04-20T14:40:53.855Z,10.70
2023-04-20T14:55:56.755Z,10.30
2023-04-20T15:11:13.222Z,10.80
2023-04-20T15:26:30.035Z,11.00
2023-04-20T15:41:36.194Z,11.30
2023-04-20T15:56:42.011Z,10.80
2023-04-20T16:11:44.511Z,10.40
2023-04-20T16:26:47.359Z,10.90
2023-04-20T16:42:04.325Z,10.90
2023-04-20T16:57:11.717Z,11.10
2023-04-20T17:12:17.179Z,10.80
2023-04-20T17:27:23.183Z,10.70
2023-04-20T17:42:25.962Z,10.40
2023-04-20T17:57:55.864Z,10.40
2023-04-20T18:13:01.713Z,10.40
2023-04-20T18:28:04.810Z,9.60
2023-04-20T18:43:21.231Z,9.50
2023-04-20T18:58:24.540Z,9.40
2023-04-20T19:13:46.519Z,9.40
2023-04-20T19:28:49.017Z,9.20
2023-04-20T19:43:57.737Z,8.70
2023-04-20T19:59:00.925Z,8.50
2023-04-20T20:14:13.835Z,8.50
2023-04-20T20:29:18.475Z,8.20
2023-04-20T20:44:23.401Z,8.30
2023-04-20T20:59:29.780Z,8.40
2023-04-20T21:14:52.297Z,8.20
2023-04-20T21:29:54.766Z,7.90
2023-04-20T21:45:17.472Z,7.90
2023-04-20T22:00:22.794Z,7.90
2023-04-20T22:15:26.074Z,7.40
2023-04-20T22:30:28.612Z,7.30
2023-04-20T22:45:34.601Z,7.30
2023-04-20T23:00:57.093Z,7.40
2023-04-20T23:16:19.860Z,7.20
2023-04-20T23:31:22.637Z,7.30
2023-04-20T23:46:25.605Z,7.40
